Time;durP1;ratioP1;P1;durP2;ratioP2;P2;SDS_P1;SDS_P2;PMS_P1;PMS_P2;Temp;Humidity;BMP_temperature;BMP_pressure;BME280_temperature;BME280_humidity;BME280_pressure;Samples;Min_cycle;Max_cycle;Signal;HPM_P1;HPM_P2
2024/03/19 00:02:03;;;;;;;11.00;10.00;;;8.60;99.90;;;;;;4878704;29;20510;-69
2024/03/19 00:04:30;;;;;;;11.73;10.73;;;8.60;99.90;;;;;;4878654;29;20446;-69
2024/03/19 00:06:59;;;;;;;12.33;11.00;;;8.60;99.90;;;;;;4878635;29;20593;-69
2024/03/19 00:09:26;;;;;;;14.50;10.60;;;8.50;99.90;;;;;;4878683;29;21012;-69
2024/03/19 00:11:54;;;;;;;11.43;10.30;;;8.50;99.90;;;;;;4878525;29;20526;-69
2024/03/19 00:14:21;;;;;;;11.50;10.40;;;8.50;99.90;;;;;;4882073;29;20435;-69
2024/03/19 00:16:48;;;;;;;11.80;10.80;;;8.40;99.90;;;;;;4880910;29;20446;-69
2024/03/19 00:19:17;;;;;;;11.63;10.53;;;8.40;99.90;;;;;;4879735;29;20533;-69
2024/03/19 00:21:44;;;;;;;12.80;11.47;;;8.40;99.90;;;;;;4893971;29;20514;-69
2024/03/19 00:24:13;;;;;;;13.43;12.03;;;8.30;99.90;;;;;;4878768;29;20485;-69
2024/03/19 00:26:41;;;;;;;11.23;10.23;;;8.30;99.90;;;;;;4894197;29;20454;-69
2024/03/19 00:29:08;;;;;;;12.90;11.70;;;8.30;99.90;;;;;;4878529;29;20450;-69
2024/03/19 00:31:35;;;;;;;13.77;10.90;;;8.20;99.90;;;;;;4878447;29;20558;-69
2024/03/19 00:34:03;;;;;;;12.87;11.43;;;8.20;99.90;;;;;;4878360;29;20462;-69
2024/03/19 00:36:31;;;;;;;12.30;11.20;;;8.20;99.90;;;;;;4863090;29;20460;-69
2024/03/19 00:38:58;;;;;;;12.20;11.03;;;8.10;99.90;;;;;;4878738;29;20456;-69
2024/03/19 00:41:27;;;;;;;12.97;11.67;;;8.10;99.90;;;;;;4878373;29;20474;-69
2024/03/19 00:43:55;;;;;;;11.97;10.73;;;8.10;99.90;;;;;;4878869;29;20458;-69
2024/03/19 00:46:23;;;;;;;13.73;12.40;;;8.00;99.90;;;;;;4878253;29;20522;-69
2024/03/19 00:48:50;;;;;;;12.70;11.33;;;8.00;99.90;;;;;;4878260;29;20979;-69
2024/03/19 00:51:18;;;;;;;13.30;12.10;;;8.00;99.90;;;;;;4893813;29;20492;-69
2024/03/19 00:53:45;;;;;;;14.50;13.10;;;7.90;99.90;;;;;;4878443;29;20528;-69
2024/03/19 00:56:12;;;;;;;15.37;13.87;;;7.90;99.90;;;;;;4878265;29;20525;-69
2024/03/19 00:58:41;;;;;;;13.57;12.23;;;7.90;99.90;;;;;;4878373;29;21011;-69
2024/03/19 01:01:08;;;;;;;13.00;11.70;;;7.80;99.90;;;;;;4878712;29;20470;-69
2024/03/19 01:03:36;;;;;;;13.37;12.07;;;7.80;99.90;;;;;;4878030;29;20446;-69
2024/03/19 01:06:04;;;;;;;12.03;10.93;;;7.80;99.90;;;;;;4893557;29;20980;-69
2024/03/19 01:08:30;;;;;;;12.07;10.87;;;7.70;99.90;;;;;;4878007;29;20461;-69
2024/03/19 01:11:01;;;;;;;11.97;10.87;;;7.70;99.90;;;;;;4877854;29;20844;-69
2024/03/19 01:13:29;;;;;;;12.03;10.90;;;7.70;99.90;;;;;;4878073;29;20845;-69
2024/03/19 01:15:58;;;;;;;11.43;10.23;;;7.60;99.90;;;;;;4877949;29;20465;-69
2024/03/19 01:18:25;;;;;;;12.10;10.90;;;7.60;99.90;;;;;;4878276;29;20805;-69
2024/03/19 01:20:53;;;;;;;10.93;9.93;;;7.60;99.90;;;;;;4878053;29;20462;-69
2024/03/19 01:23:20;;;;;;;12.60;11.40;;;7.50;99.90;;;;;;4877861;29;20449;-69
2024/03/19 01:25:48;;;;;;;11.17;10.17;;;7.50;99.90;;;;;;4878095;29;20457;-69
2024/03/19 01:28:15;;;;;;;12.70;11.40;;;7.50;99.90;;;;;;4877794;29;20456;-69
2024/03/19 01:30:43;;;;;;;12.20;11.00;;;7.50;99.90;;;;;;4877760;29;20541;-69
2024/03/19 01:33:12;;;;;;;12.27;11.07;;;7.50;99.90;;;;;;4894869;29;20457;-69
2024/03/19 01:35:39;;;;;;;10.43;9.20;;;7.40;99.90;;;;;;4881162;29;20468;-69
2024/03/19 01:38:07;;;;;;;12.13;11.00;;;7.40;99.90;;;;;;4881159;29;20445;-69
2024/03/19 01:40:34;;;;;;;11.40;10.30;;;7.40;99.90;;;;;;4881170;29;20935;-69
2024/03/19 01:43:02;;;;;;;13.20;10.80;;;7.40;99.90;;;;;;4896709;29;20450;-69
2024/03/19 01:45:29;;;;;;;11.87;10.67;;;7.30;99.90;;;;;;4881044;29;20526;-69
2024/03/19 01:47:56;;;;;;;11.27;10.07;;;7.30;99.90;;;;;;4881578;29;20453;-69
2024/03/19 01:50:26;;;;;;;12.13;10.03;;;7.30;99.90;;;;;;4881081;29;20474;-69
2024/03/19 01:52:54;;;;;;;10.00;9.00;;;7.30;99.90;;;;;;4880957;29;20823;-69
2024/03/19 01:55:24;;;;;;;10.60;9.60;;;7.30;99.90;;;;;;4880751;29;20801;-69
2024/03/19 01:57:53;;;;;;;11.90;10.67;;;7.20;99.90;;;;;;4881045;29;20462;-69
2024/03/19 02:00:20;;;;;;;10.47;9.47;;;7.20;99.90;;;;;;4880888;29;20498;-69
2024/03/19 02:02:47;;;;;;;11.00;9.90;;;7.20;99.90;;;;;;4880732;29;20458;-69
2024/03/19 02:05:15;;;;;;;10.27;9.17;;;7.20;99.90;;;;;;4880802;29;20526;-70
2024/03/19 02:07:44;;;;;;;10.03;9.00;;;7.20;99.90;;;;;;4880829;29;20462;-69
2024/03/19 02:10:11;;;;;;;10.00;9.10;;;7.10;99.90;;;;;;4880590;29;20498;-69
2024/03/19 02:12:38;;;;;;;9.67;8.67;;;7.10;99.90;;;;;;4880752;29;20987;-69
2024/03/19 02:15:06;;;;;;;9.67;8.80;;;7.10;99.90;;;;;;4881019;29;20450;-69
2024/03/19 02:17:34;;;;;;;9.80;8.80;;;7.10;99.90;;;;;;4880498;29;20488;-69
2024/03/19 02:20:01;;;;;;;9.57;8.70;;;7.10;99.90;;;;;;4880632;29;20518;-69
2024/03/19 02:22:30;;;;;;;10.37;8.80;;;7.10;99.90;;;;;;4882572;29;20453;-69
2024/03/19 02:24:57;;;;;;;9.87;8.47;;;7.00;99.90;;;;;;4880713;29;20982;-69
2024/03/19 02:27:24;;;;;;;10.80;9.80;;;7.00;99.90;;;;;;4896090;29;20506;-69
2024/03/19 02:29:52;;;;;;;9.60;8.70;;;7.00;99.90;;;;;;4880376;29;20462;-69
2024/03/19 02:32:19;;;;;;;9.33;8.33;;;7.00;99.90;;;;;;4880567;29;20485;-69
2024/03/19 02:34:46;;;;;;;8.90;8.10;;;7.00;99.90;;;;;;4880943;29;20461;-69
2024/03/19 02:37:14;;;;;;;9.53;8.60;;;7.00;99.90;;;;;;4881370;29;20983;-69
2024/03/19 02:39:42;;;;;;;9.40;8.50;;;7.00;99.90;;;;;;4880772;29;20502;-68
2024/03/19 02:42:10;;;;;;;8.73;7.57;;;6.90;99.90;;;;;;4880300;29;20967;-69
2024/03/19 02:44:37;;;;;;;9.33;8.43;;;6.90;99.90;;;;;;4879184;29;20454;-69
2024/03/19 02:47:04;;;;;;;10.63;9.63;;;6.90;99.90;;;;;;4880187;29;20457;-69
2024/03/19 02:49:32;;;;;;;9.43;8.33;;;6.90;99.90;;;;;;4879981;29;20501;-69
2024/03/19 02:51:59;;;;;;;11.10;8.97;;;6.90;99.90;;;;;;4895989;29;20469;-69
2024/03/19 02:54:27;;;;;;;8.63;7.83;;;6.80;99.90;;;;;;4880267;29;20452;-69
2024/03/19 02:56:55;;;;;;;8.33;7.53;;;6.80;99.90;;;;;;4879940;29;21024;-69
2024/03/19 02:59:23;;;;;;;9.13;8.03;;;6.80;99.90;;;;;;4879821;29;20543;-69
2024/03/19 03:01:50;;;;;;;10.67;8.33;;;6.80;99.90;;;;;;4879798;29;20456;-69
2024/03/19 03:04:17;;;;;;;9.13;8.33;;;6.80;99.90;;;;;;4879932;29;20474;-69
2024/03/19 03:06:44;;;;;;;9.53;8.60;;;6.70;99.90;;;;;;4879668;29;20963;-69
2024/03/19 03:09:12;;;;;;;8.70;7.80;;;6.70;99.90;;;;;;4879629;29;20501;-69
2024/03/19 03:11:39;;;;;;;8.60;7.80;;;6.70;99.90;;;;;;4879324;29;20557;-70
2024/03/19 03:14:08;;;;;;;9.60;8.30;;;6.70;99.90;;;;;;4880063;29;20956;-69
2024/03/19 03:16:35;;;;;;;10.10;8.30;;;6.70;99.90;;;;;;4879538;29;20462;-69
2024/03/19 03:19:03;;;;;;;9.40;8.30;;;6.70;99.90;;;;;;4879762;29;20540;-69
2024/03/19 03:21:30;;;;;;;8.67;7.83;;;6.60;99.90;;;;;;4879449;29;20982;-69
2024/03/19 03:23:58;;;;;;;9.00;8.10;;;6.60;99.90;;;;;;4879470;29;20548;-69
2024/03/19 03:26:25;;;;;;;9.30;8.40;;;6.60;99.90;;;;;;4879770;29;20457;-69
2024/03/19 03:28:52;;;;;;;9.57;8.53;;;6.60;99.90;;;;;;4879347;29;20455;-69
2024/03/19 03:31:21;;;;;;;8.20;7.40;;;6.60;99.90;;;;;;4879251;29;20492;-69
2024/03/19 03:33:49;;;;;;;8.27;7.38;;;6.60;99.90;;;;;;4878737;29;20458;-69
2024/03/19 03:36:16;;;;;;;10.03;9.07;;;6.60;99.90;;;;;;4879271;29;20666;-69
2024/03/19 03:38:44;;;;;;;8.90;8.00;;;6.60;99.90;;;;;;4879251;29;20961;-69
2024/03/19 03:41:11;;;;;;;8.30;7.50;;;6.60;99.90;;;;;;4879083;29;20478;-69
2024/03/19 03:43:38;;;;;;;8.50;7.67;;;6.60;99.90;;;;;;4879420;29;20517;-69
2024/03/19 03:46:05;;;;;;;8.43;7.20;;;6.50;99.90;;;;;;4879304;29;20805;-69
2024/03/19 03:48:34;;;;;;;8.30;7.27;;;6.50;99.90;;;;;;4878996;29;20989;-69
2024/03/19 03:51:02;;;;;;;11.30;8.40;;;6.50;99.90;;;;;;4878964;29;20479;-69
2024/03/19 03:53:29;;;;;;;9.17;8.30;;;6.50;99.90;;;;;;4879186;29;20523;-69
2024/03/19 03:55:56;;;;;;;8.90;8.00;;;6.50;99.90;;;;;;4878795;29;20513;-69
2024/03/19 03:58:23;;;;;;;9.23;8.27;;;6.50;99.90;;;;;;4878906;29;20505;-69
2024/03/19 04:00:51;;;;;;;9.90;8.80;;;6.40;99.90;;;;;;4880311;29;20469;-69
2024/03/19 04:03:19;;;;;;;9.40;8.50;;;6.40;99.90;;;;;;4883296;29;20926;-69
2024/03/19 04:05:49;;;;;;;7.70;7.00;;;6.40;99.90;;;;;;4880337;29;20458;-69
2024/03/19 04:08:18;;;;;;;9.33;8.17;;;6.40;99.90;;;;;;4880035;29;20853;-69
2024/03/19 04:10:45;;;;;;;8.97;8.07;;;6.40;99.90;;;;;;4879075;29;20470;-69
2024/03/19 04:13:12;;;;;;;8.70;7.80;;;6.40;99.90;;;;;;4878713;29;20510;-69
2024/03/19 04:15:41;;;;;;;8.83;7.50;;;6.40;99.90;;;;;;4878984;29;20452;-69
2024/03/19 04:18:08;;;;;;;8.87;7.90;;;6.40;99.90;;;;;;4878736;29;20516;-69
2024/03/19 04:20:36;;;;;;;8.10;6.77;;;6.40;99.90;;;;;;4878636;29;20470;-69
2024/03/19 04:23:05;;;;;;;10.10;9.10;;;6.30;99.90;;;;;;4878641;29;20447;-69
2024/03/19 04:25:32;;;;;;;8.60;7.80;;;6.30;99.90;;;;;;4878491;29;20948;-69
2024/03/19 04:27:59;;;;;;;9.10;8.20;;;6.30;99.90;;;;;;4878549;29;20947;-69
2024/03/19 04:30:26;;;;;;;16.93;7.73;;;6.30;99.90;;;;;;4878620;29;20533;-69
2024/03/19 04:32:53;;;;;;;8.90;7.90;;;6.30;99.90;;;;;;4878410;29;20477;-69
2024/03/19 04:35:21;;;;;;;8.00;7.30;;;6.30;99.90;;;;;;4878491;29;20473;-69
2024/03/19 04:37:49;;;;;;;9.73;7.83;;;6.30;99.90;;;;;;4878425;29;21011;-69
2024/03/19 04:40:18;;;;;;;7.80;7.00;;;6.30;99.90;;;;;;4878644;29;20533;-69
2024/03/19 04:42:45;;;;;;;7.90;7.10;;;6.30;99.90;;;;;;4878943;29;20484;-69
2024/03/19 04:45:13;;;;;;;8.47;7.67;;;6.30;99.90;;;;;;4878606;29;20447;-69
2024/03/19 04:47:40;;;;;;;7.97;7.10;;;6.20;99.90;;;;;;4878268;29;20464;-69
2024/03/19 04:50:08;;;;;;;8.10;7.30;;;6.20;99.90;;;;;;4878333;29;21009;-69
2024/03/19 04:52:35;;;;;;;8.50;7.10;;;6.20;99.90;;;;;;4878243;29;20485;-69
2024/03/19 04:55:02;;;;;;;9.00;8.10;;;6.20;99.90;;;;;;4878224;29;20446;-69
2024/03/19 04:57:31;;;;;;;7.67;6.83;;;6.20;99.90;;;;;;4894314;29;20482;-69
2024/03/19 04:59:58;;;;;;;7.70;6.97;;;6.20;99.90;;;;;;4878159;29;20473;-69
2024/03/19 05:02:26;;;;;;;8.97;6.47;;;6.20;99.90;;;;;;4878472;29;21047;-69
2024/03/19 05:04:53;;;;;;;8.63;7.80;;;6.20;99.90;;;;;;4878183;29;20450;-69
2024/03/19 05:07:20;;;;;;;8.57;7.67;;;6.20;99.90;;;;;;4878255;29;20460;-69
2024/03/19 05:09:48;;;;;;;9.80;7.70;;;6.20;99.90;;;;;;4881754;29;20551;-69
2024/03/19 05:12:15;;;;;;;8.13;7.33;;;6.20;99.90;;;;;;4881786;29;20484;-69
2024/03/19 05:14:44;;;;;;;8.30;7.50;;;6.20;99.90;;;;;;4882056;29;20483;-69
2024/03/19 05:17:11;;;;;;;7.80;7.00;;;6.20;99.90;;;;;;4881700;29;20513;-69
2024/03/19 05:19:38;;;;;;;7.47;6.47;;;6.20;99.90;;;;;;4881664;29;20457;-69
2024/03/19 05:22:06;;;;;;;8.30;7.50;;;6.20;99.90;;;;;;4881596;29;20955;-69
2024/03/19 05:24:33;;;;;;;7.70;7.00;;;6.20;99.90;;;;;;4882090;29;20452;-69
2024/03/19 05:27:00;;;;;;;7.97;6.80;;;6.20;99.90;;;;;;4881565;29;20456;-69
2024/03/19 05:29:27;;;;;;;7.97;7.23;;;6.20;99.90;;;;;;4881672;29;20450;-69
2024/03/19 05:31:56;;;;;;;7.97;7.17;;;6.20;99.90;;;;;;4881586;29;20454;-69
2024/03/19 05:34:24;;;;;;;8.30;7.10;;;6.20;99.90;;;;;;4882555;29;20453;-69
2024/03/19 05:36:51;;;;;;;8.20;7.40;;;6.20;99.90;;;;;;4882733;29;20460;-69
2024/03/19 05:39:19;;;;;;;9.07;8.13;;;6.20;99.90;;;;;;4883948;29;20447;-69
2024/03/19 05:41:46;;;;;;;9.37;8.40;;;6.20;99.90;;;;;;4882940;29;20567;-69
2024/03/19 05:44:13;;;;;;;8.80;7.37;;;6.20;99.90;;;;;;4883438;29;20449;-69
2024/03/19 05:46:41;;;;;;;7.43;6.50;;;6.20;99.90;;;;;;4882239;29;20537;-69
2024/03/19 05:49:11;;;;;;;8.07;7.27;;;6.20;99.90;;;;;;4882455;29;20453;-69
2024/03/19 05:51:38;;;;;;;8.57;7.67;;;6.20;99.90;;;;;;4881739;29;20480;-70
2024/03/19 05:54:06;;;;;;;8.37;7.57;;;6.20;99.90;;;;;;4881987;29;20536;-70
2024/03/19 05:56:33;;;;;;;9.50;7.63;;;6.20;99.90;;;;;;4881641;29;20797;-69
2024/03/19 05:59:00;;;;;;;7.83;7.03;;;6.30;99.90;;;;;;4881689;29;20449;-70
2024/03/19 06:01:28;;;;;;;9.10;7.70;;;6.30;99.90;;;;;;4881144;29;20471;-70
2024/03/19 06:03:55;;;;;;;8.63;7.80;;;6.30;99.90;;;;;;4880979;29;20456;-69
2024/03/19 06:06:24;;;;;;;9.50;8.50;;;6.30;99.90;;;;;;4881464;29;20945;-70
2024/03/19 06:08:51;;;;;;;8.67;7.87;;;6.30;99.90;;;;;;4880914;29;20461;-70
2024/03/19 06:11:19;;;;;;;9.00;8.07;;;6.30;99.90;;;;;;4880966;29;20475;-70
2024/03/19 06:13:46;;;;;;;8.33;7.53;;;6.30;99.90;;;;;;4880732;29;20490;-70
2024/03/19 06:16:13;;;;;;;8.23;7.33;;;6.30;99.90;;;;;;4880913;29;20543;-70
2024/03/19 06:18:41;;;;;;;11.50;10.20;;;6.30;99.90;;;;;;4880810;29;20505;-70
2024/03/19 06:21:08;;;;;;;10.50;9.50;;;6.40;99.90;;;;;;4880899;29;20472;-70
2024/03/19 06:23:36;;;;;;;11.00;10.00;;;6.40;99.90;;;;;;4880728;29;20454;-70
2024/03/19 06:26:04;;;;;;;10.33;8.70;;;6.40;99.90;;;;;;4880612;29;20506;-70
2024/03/19 06:28:32;;;;;;;9.13;8.23;;;6.40;99.90;;;;;;4880984;29;20457;-68
2024/03/19 06:30:59;;;;;;;13.33;11.87;;;6.40;99.90;;;;;;4880529;29;20475;-69
2024/03/19 06:33:27;;;;;;;8.47;7.40;;;6.40;99.90;;;;;;4880291;29;20476;-70
2024/03/19 06:35:54;;;;;;;10.53;9.47;;;6.50;99.90;;;;;;4880403;29;20449;-70
2024/03/19 06:38:21;;;;;;;11.40;10.20;;;6.50;99.90;;;;;;4880348;29;20452;-70
2024/03/19 06:40:50;;;;;;;9.47;8.47;;;6.50;99.90;;;;;;4880297;29;20522;-70
2024/03/19 06:43:17;;;;;;;8.40;7.60;;;6.50;99.90;;;;;;4880175;29;20453;-70
2024/03/19 06:45:44;;;;;;;9.10;8.20;;;6.50;99.90;;;;;;4880266;29;20462;-70
2024/03/19 06:48:11;;;;;;;9.03;8.13;;;6.60;99.90;;;;;;4880093;29;20481;-70
2024/03/19 06:50:39;;;;;;;8.27;7.57;;;6.60;99.90;;;;;;4880050;29;20891;-69
2024/03/19 06:53:06;;;;;;;9.73;8.80;;;6.60;99.90;;;;;;4879953;29;20474;-69
2024/03/19 06:55:36;;;;;;;15.97;14.30;;;6.60;99.90;;;;;;4879997;29;20461;-69
2024/03/19 06:58:06;;;;;;;9.30;8.50;;;6.60;99.90;;;;;;4880209;29;20850;-69
2024/03/19 07:00:34;;;;;;;9.70;8.73;;;6.70;99.90;;;;;;4880030;29;20477;-69
2024/03/19 07:03:01;;;;;;;10.17;8.77;;;6.70;99.90;;;;;;4879768;29;20880;-69
2024/03/19 07:05:29;;;;;;;8.93;8.13;;;6.70;99.90;;;;;;4879831;29;21013;-69
2024/03/19 07:07:58;;;;;;;9.50;8.57;;;6.70;99.90;;;;;;4879720;29;20449;-69
2024/03/19 07:10:26;;;;;;;11.23;10.00;;;6.80;99.90;;;;;;4879553;29;20476;-69
2024/03/19 07:12:54;;;;;;;10.27;9.37;;;6.80;99.90;;;;;;4879371;29;20489;-69
2024/03/19 07:15:23;;;;;;;9.73;8.83;;;6.90;99.90;;;;;;4879600;29;20464;-69
2024/03/19 07:17:51;;;;;;;8.47;7.60;;;6.90;99.90;;;;;;4879532;29;20462;-69
2024/03/19 07:20:19;;;;;;;11.37;10.20;;;6.90;99.90;;;;;;4879434;29;21052;-69
2024/03/19 07:22:48;;;;;;;10.70;9.67;;;7.00;99.90;;;;;;4879981;29;20471;-69
2024/03/19 07:25:15;;;;;;;14.57;9.80;;;7.00;99.90;;;;;;4879424;29;20952;-69
2024/03/19 07:27:45;;;;;;;10.60;9.50;;;7.00;99.90;;;;;;4879348;29;20457;-69
2024/03/19 07:30:14;;;;;;;10.70;9.80;;;7.00;99.90;;;;;;4878946;29;20499;-69
2024/03/19 07:32:44;;;;;;;9.60;8.60;;;7.10;99.90;;;;;;4879234;29;20951;-69
2024/03/19 07:35:12;;;;;;;11.00;10.10;;;7.10;99.90;;;;;;4879543;29;20532;-69
2024/03/19 07:37:40;;;;;;;11.10;10.07;;;7.10;99.90;;;;;;4879267;29;20453;-69
2024/03/19 07:40:10;;;;;;;10.07;9.07;;;7.20;99.90;;;;;;4879010;29;20493;-69
2024/03/19 07:42:37;;;;;;;9.80;9.00;;;7.20;99.90;;;;;;4879186;29;20458;-68
2024/03/19 07:45:05;;;;;;;10.60;9.60;;;7.20;99.90;;;;;;4879554;29;20450;-69
2024/03/19 07:47:33;;;;;;;17.00;15.40;;;7.30;99.90;;;;;;4879155;29;20453;-69
2024/03/19 07:50:02;;;;;;;21.57;19.50;;;7.30;99.90;;;;;;4879455;29;20473;-69
2024/03/19 07:52:29;;;;;;;14.00;12.70;;;7.40;99.90;;;;;;4882494;29;20455;-69
2024/03/19 07:54:56;;;;;;;12.23;11.03;;;7.40;99.90;;;;;;4880735;29;20898;-69
2024/03/19 07:57:24;;;;;;;12.07;10.87;;;7.50;99.90;;;;;;4879933;29;20529;-68
2024/03/19 07:59:52;;;;;;;11.87;10.77;;;7.60;99.90;;;;;;4879400;29;20477;-69
2024/03/19 08:02:19;;;;;;;12.40;11.30;;;7.60;99.90;;;;;;4879433;29;20450;-69
2024/03/19 08:04:49;;;;;;;12.63;11.53;;;7.70;99.90;;;;;;4879267;29;20452;-69
2024/03/19 08:07:18;;;;;;;13.10;11.77;;;7.80;99.90;;;;;;4879108;29;20451;-70
2024/03/19 08:09:47;;;;;;;12.90;11.70;;;7.80;99.90;;;;;;4878747;29;20473;-69
2024/03/19 08:12:15;;;;;;;12.67;11.47;;;7.90;99.90;;;;;;4878750;29;20468;-69
2024/03/19 08:14:43;;;;;;;12.97;11.73;;;8.00;99.90;;;;;;4878694;29;20491;-70
2024/03/19 08:17:10;;;;;;;12.87;11.63;;;8.10;99.90;;;;;;4878713;29;20446;-69
2024/03/19 08:19:37;;;;;;;14.77;13.23;;;8.10;99.90;;;;;;4878591;29;20555;-69
2024/03/19 08:22:05;;;;;;;13.97;12.50;;;8.20;99.90;;;;;;4878743;29;20456;-69
2024/03/19 08:24:33;;;;;;;13.63;12.30;;;8.20;99.90;;;;;;4894136;29;20453;-69
2024/03/19 08:27:01;;;;;;;14.07;12.50;;;8.20;99.90;;;;;;4879124;29;20529;-69
2024/03/19 08:29:28;;;;;;;13.77;12.27;;;8.30;99.90;;;;;;4878899;29;20454;-69
2024/03/19 08:31:56;;;;;;;18.27;16.47;;;8.30;99.90;;;;;;4879502;29;20467;-69
2024/03/19 08:34:23;;;;;;;19.53;17.57;;;8.30;99.90;;;;;;4879479;29;20481;-70
2024/03/19 08:36:50;;;;;;;15.73;14.20;;;8.40;99.90;;;;;;4879086;29;20457;-69
2024/03/19 08:39:18;;;;;;;14.73;13.37;;;8.40;99.90;;;;;;4878599;29;20888;-70
2024/03/19 08:41:47;;;;;;;14.97;13.47;;;8.50;99.90;;;;;;4878678;29;20450;-70
2024/03/19 08:44:14;;;;;;;14.90;13.40;;;8.50;99.90;;;;;;4881813;29;20482;-70
2024/03/19 08:46:42;;;;;;;14.60;13.30;;;8.60;99.90;;;;;;4882331;29;20461;-70
2024/03/19 08:49:10;;;;;;;14.97;13.47;;;8.60;99.90;;;;;;4882207;29;20453;-70
2024/03/19 08:51:37;;;;;;;14.27;12.90;;;8.70;99.90;;;;;;4882082;29;20480;-70
2024/03/19 08:54:05;;;;;;;14.80;13.30;;;8.80;99.90;;;;;;4882031;29;20557;-70
2024/03/19 08:56:34;;;;;;;16.37;14.83;;;8.80;99.90;;;;;;4866576;29;20446;-70
2024/03/19 08:59:03;;;;;;;14.93;13.53;;;8.90;99.90;;;;;;4882564;29;20454;-70
2024/03/19 09:01:30;;;;;;;16.60;15.10;;;8.90;99.90;;;;;;4882063;29;20828;-68
2024/03/19 09:03:59;;;;;;;16.73;15.07;;;9.00;99.90;;;;;;4881975;29;20451;-70
2024/03/19 09:06:26;;;;;;;15.10;13.70;;;9.00;99.90;;;;;;4881934;29;20502;-70
2024/03/19 09:08:54;;;;;;;16.53;14.93;;;9.00;99.90;;;;;;4882160;29;20992;-70
2024/03/19 09:11:21;;;;;;;16.20;14.70;;;9.10;99.90;;;;;;4881803;29;20900;-70
2024/03/19 09:13:49;;;;;;;17.57;15.93;;;9.10;99.90;;;;;;4881666;29;20518;-70
2024/03/19 09:16:17;;;;;;;17.87;16.00;;;9.20;99.90;;;;;;4881761;29;20461;-70
2024/03/19 09:18:45;;;;;;;20.70;18.50;;;9.30;99.90;;;;;;4881715;29;20502;-70
2024/03/19 09:21:12;;;;;;;19.10;17.20;;;9.30;99.90;;;;;;4881952;29;20462;-70
2024/03/19 09:23:40;;;;;;;17.97;16.17;;;9.40;99.90;;;;;;4881650;29;20454;-70
2024/03/19 09:26:07;;;;;;;17.93;16.03;;;9.40;99.90;;;;;;4881648;29;20557;-70
2024/03/19 09:28:35;;;;;;;21.70;19.57;;;9.50;99.90;;;;;;4881587;29;20956;-70
2024/03/19 09:31:02;;;;;;;20.27;18.33;;;9.50;99.90;;;;;;4897149;29;21003;-70
2024/03/19 09:33:31;;;;;;;20.03;18.13;;;9.60;99.90;;;;;;4881347;29;21064;-70
2024/03/19 09:35:58;;;;;;;20.63;17.00;;;9.60;99.90;;;;;;4881453;29;20446;-70
2024/03/19 09:38:26;;;;;;;19.77;17.77;;;9.80;99.90;;;;;;4881278;29;20454;-70
2024/03/19 09:40:56;;;;;;;17.60;15.90;;;9.80;99.90;;;;;;4881516;29;21009;-70
2024/03/19 09:43:24;;;;;;;22.73;17.87;;;10.00;99.90;;;;;;4881757;29;20925;-70
2024/03/19 09:45:52;;;;;;;18.93;17.03;;;10.10;99.90;;;;;;4881287;29;20450;-70
2024/03/19 09:48:20;;;;;;;17.73;16.13;;;10.30;99.90;;;;;;4881975;29;20824;-70
2024/03/19 09:50:49;;;;;;;18.60;16.80;;;10.50;99.90;;;;;;4880982;29;20617;-70
2024/03/19 09:53:21;;;;;;;19.47;17.47;;;10.60;99.90;;;;;;4880753;29;20514;-70
2024/03/19 09:55:48;;;;;;;21.23;19.23;;;10.80;99.90;;;;;;4881089;29;20936;-70
2024/03/19 09:58:16;;;;;;;20.30;18.20;;;10.80;99.90;;;;;;4881005;29;20461;-70
2024/03/19 10:00:46;;;;;;;20.37;18.47;;;10.90;99.90;;;;;;4880869;29;20908;-70
2024/03/19 10:03:13;;;;;;;22.63;19.07;;;11.00;99.90;;;;;;4881155;29;20498;-70
2024/03/19 10:05:41;;;;;;;23.00;20.60;;;11.10;99.90;;;;;;4880825;29;20458;-70
2024/03/19 10:08:13;;;;;;;24.50;21.00;;;11.20;99.90;;;;;;4880893;29;20454;-70
2024/03/19 10:10:41;;;;;;;22.03;19.83;;;11.30;99.90;;;;;;4880976;29;20522;-70
2024/03/19 10:13:12;;;;;;;23.27;20.80;;;11.40;99.90;;;;;;4880647;29;20469;-70
2024/03/19 10:15:39;;;;;;;23.80;21.30;;;11.40;99.90;;;;;;4880651;29;20837;-70
2024/03/19 10:18:08;;;;;;;23.10;20.63;;;11.50;99.90;;;;;;4880932;29;20782;-70
2024/03/19 10:20:36;;;;;;;23.50;21.20;;;11.60;99.90;;;;;;4880581;29;20483;-70
2024/03/19 10:23:05;;;;;;;24.37;21.77;;;11.70;99.90;;;;;;4880873;29;20450;-70
2024/03/19 10:25:36;;;;;;;25.23;22.17;;;11.80;99.90;;;;;;4864943;29;20477;-70
2024/03/19 10:28:06;;;;;;;24.90;22.47;;;11.90;99.90;;;;;;4880511;29;20486;-70
2024/03/19 10:30:34;;;;;;;25.30;22.60;;;12.00;99.90;;;;;;4880181;29;20478;-70
2024/03/19 10:33:05;;;;;;;24.83;22.27;;;12.00;99.90;;;;;;4880864;29;20461;-70
2024/03/19 10:35:33;;;;;;;26.37;23.67;;;12.10;99.90;;;;;;4880583;29;20960;-70
2024/03/19 10:38:00;;;;;;;26.30;23.50;;;12.20;99.90;;;;;;4880234;29;20542;-70
2024/03/19 10:40:28;;;;;;;26.50;23.90;;;12.30;99.90;;;;;;4880383;29;20493;-70
2024/03/19 10:42:58;;;;;;;26.00;23.37;;;12.30;99.90;;;;;;4895788;29;20952;-70
2024/03/19 10:45:28;;;;;;;27.77;24.63;;;12.40;99.90;;;;;;4880114;29;20447;-70
2024/03/19 10:47:56;;;;;;;25.87;23.27;;;12.50;99.90;;;;;;4880273;29;20431;-70
2024/03/19 10:50:24;;;;;;;26.50;23.70;;;12.60;99.90;;;;;;4879972;29;20469;-70
2024/03/19 10:52:57;;;;;;;28.37;25.37;;;12.60;99.90;;;;;;4880063;29;20450;-70
2024/03/19 10:55:25;;;;;;;28.10;25.20;;;12.70;99.90;;;;;;4880221;29;20469;-70
2024/03/19 10:57:53;;;;;;;29.40;25.97;;;12.80;99.90;;;;;;4879822;29;20447;-70
2024/03/19 11:00:27;;;;;;;31.23;27.43;;;12.90;99.90;;;;;;4879824;29;20473;-69
2024/03/19 11:02:57;;;;;;;29.27;25.23;;;13.00;99.90;;;;;;4880431;29;20445;-70
2024/03/19 11:05:24;;;;;;;32.57;27.40;;;13.10;99.90;;;;;;4878939;29;20533;-70
2024/03/19 11:07:53;;;;;;;28.53;25.40;;;13.20;99.90;;;;;;4880202;29;20967;-70
2024/03/19 11:10:22;;;;;;;26.93;23.73;;;13.20;99.90;;;;;;4879485;29;20478;-70
2024/03/19 11:12:56;;;;;;;28.27;25.27;;;13.30;99.90;;;;;;4879523;29;20462;-70
2024/03/19 11:15:25;;;;;;;32.83;26.37;;;13.50;99.90;;;;;;4879941;29;20565;-70
2024/03/19 11:17:53;;;;;;;31.33;25.97;;;13.50;99.90;;;;;;4879532;29;20517;-70
2024/03/19 11:20:21;;;;;;;30.30;24.97;;;13.60;99.90;;;;;;4879518;29;20488;-70
2024/03/19 11:22:49;;;;;;;29.53;23.77;;;13.70;99.90;;;;;;4879467;29;20964;-70
2024/03/19 11:25:17;;;;;;;27.90;23.57;;;13.80;99.90;;;;;;4879501;29;21036;-70
2024/03/19 11:27:49;;;;;;;27.60;23.80;;;13.80;99.90;;;;;;4879560;29;20807;-71
2024/03/19 11:30:17;;;;;;;27.70;23.80;;;13.90;99.90;;;;;;4879476;29;20902;-70
2024/03/19 11:32:49;;;;;;;29.53;25.50;;;14.00;99.90;;;;;;4879920;29;20807;-70
2024/03/19 11:35:21;;;;;;;28.00;23.03;;;14.00;99.90;;;;;;4879333;29;20549;-70
2024/03/19 11:37:49;;;;;;;28.00;22.97;;;14.10;99.90;;;;;;4883752;29;20436;-70
2024/03/19 11:40:18;;;;;;;24.87;22.27;;;14.30;99.90;;;;;;4881375;29;20480;-70
2024/03/19 11:42:47;;;;;;;23.57;21.07;;;14.30;99.90;;;;;;4880865;29;20952;-70
2024/03/19 11:45:16;;;;;;;28.60;25.07;;;14.40;99.90;;;;;;4879754;29;20442;-70
2024/03/19 11:47:45;;;;;;;26.77;23.80;;;14.50;99.90;;;;;;4879542;29;20446;-70
2024/03/19 11:50:18;;;;;;;27.03;21.27;;;14.60;99.90;;;;;;4879324;29;20470;-70
2024/03/19 11:52:46;;;;;;;25.37;22.10;;;14.70;99.90;;;;;;4880254;29;20731;-71
2024/03/19 11:55:16;;;;;;;25.63;22.00;;;14.60;99.90;;;;;;4879257;29;20486;-70
2024/03/19 11:57:44;;;;;;;22.67;20.30;;;14.70;99.90;;;;;;4878925;29;20502;-71
2024/03/19 12:00:14;;;;;;;24.00;21.37;;;14.70;99.90;;;;;;4878929;29;20813;-71
2024/03/19 12:02:42;;;;;;;23.93;21.43;;;14.70;99.90;;;;;;4878762;29;20454;-71
2024/03/19 12:05:16;;;;;;;24.80;21.20;;;14.80;99.90;;;;;;4878714;29;20827;-71
2024/03/19 12:07:46;;;;;;;23.80;20.97;;;14.80;99.90;;;;;;4878956;29;20804;-71
2024/03/19 12:10:22;;;;;;;24.20;20.07;;;14.80;99.90;;;;;;4878820;29;20534;-71
2024/03/19 12:12:50;;;;;;;25.17;22.57;;;14.80;99.90;;;;;;4878775;29;20467;-71
2024/03/19 12:15:20;;;;;;;24.73;22.00;;;14.80;99.90;;;;;;4879202;29;20821;-71
2024/03/19 12:17:48;;;;;;;24.65;22.00;;;14.80;99.90;;;;;;4877619;29;20963;-70
2024/03/19 12:20:18;;;;;;;22.33;19.93;;;14.90;99.90;;;;;;4878626;29;20229;-71
2024/03/19 12:22:47;;;;;;;24.30;20.27;;;14.90;99.90;;;;;;4878570;29;20458;-71
2024/03/19 12:25:15;;;;;;;24.00;21.60;;;14.90;99.90;;;;;;4878554;29;20513;-71
2024/03/19 12:27:43;;;;;;;22.70;20.30;;;14.90;99.90;;;;;;4878403;29;20966;-71
2024/03/19 12:30:15;;;;;;;22.50;20.30;;;14.90;99.90;;;;;;4878567;29;20470;-71
2024/03/19 12:32:59;;;;;;;23.30;19.90;;;14.90;99.90;;;;;;4880225;29;20481;-71
2024/03/19 12:35:28;;;;;;;24.77;21.77;;;14.90;99.90;;;;;;4882212;29;20470;-71
2024/03/19 12:37:56;;;;;;;22.03;19.73;;;14.90;99.90;;;;;;4880432;29;20453;-70
2024/03/19 12:40:25;;;;;;;22.70;20.60;;;14.90;99.90;;;;;;4880590;29;20470;-71
2024/03/19 12:42:55;;;;;;;22.50;19.53;;;14.90;99.90;;;;;;4880426;29;20446;-71
2024/03/19 12:45:22;;;;;;;22.53;20.23;;;14.90;99.90;;;;;;4879590;29;20478;-71
2024/03/19 12:47:50;;;;;;;20.77;18.57;;;14.90;99.90;;;;;;4879853;29;20943;-70